Airfield :
LOGIN :

Register | Disclaimer

   EN    FR    IT 

 










Legend :    VFR   Marginal VFR   IFR   Intensive IFR   Very Intensive IFR
Visi :
Ceiling :
>= 8 km
>= 3000ft
5 to 8 km
1000 to 3000 ft
1500m to 5 km
500 to 1000 ft
800 to 1500m
200 to 500 ft
< 800m
< 200 ft
Symbols :   Thunderstorms  Fog  Heavy snow  Heavy precipitations  Wind > 20 kt
SIGMETs :     Misc.  Thunderstorms  Icing  Turbulence  Mountain Waves  Volcanic Ashes






- Airport Elevation : 202 ft
- IATA code : LGW


EGKK - London Gatwick

CURRENT METAR :
  • 100450Z 21008KT 9999 BKN013 11/09 Q0997

EXPIRED METARs :
  • 100420Z 20006KT 9999 SCT011 10/09 Q0997
  • 100350Z 21005KT 180V240 9999 FEW009 SCT022 10/09 Q0997
  • 100320Z 21005KT 9999 SCT016 10/09 Q0997
  • 100250Z 21005KT 9999 FEW007 10/09 Q0997
  • 100220Z 21005KT 9999 SCT007 11/10 Q0996

TAF AMD TAF EGKK
Valid from the 10 at 00:00 until the 11 at 06:00 UTC


092322Z 1000/1106 20010KT 9999 SCT035
PROB30
TEMPO 1000/1006 7000 RA BKN008
BECMG 1007/1010 21015G25KT
PROB30
TEMPO 1008/1014 22022G35KT 7000 SHRA
BECMG 1017/1020 18006KT



MET'MAP, your aeronautical weather chart ! - Copyright ORBIFLY December 2007 - Disclaimer

ORBIFLY MET'MAP TEAM :

Programming & Development : Alexandra Zaïnal
Concept & original design : Baudouin d'Aumeries
Assistance for programming : Marc-Olivier Méhu
Technical & hardware support : Manuel Goepfert

Contact : metmap@orbifly.com




SOURCES & CREDITS :

   NOAA